createdAt,value
2022-07-30T00:00:25.935Z,99.90
2022-07-30T00:02:53.441Z,99.90
2022-07-30T00:05:21.171Z,99.90
2022-07-30T00:07:48.354Z,99.90
2022-07-30T00:10:15.672Z,99.90
2022-07-30T00:12:43.073Z,99.90
2022-07-30T00:15:10.498Z,99.90
2022-07-30T00:17:37.954Z,99.90
2022-07-30T00:20:06.184Z,99.90
2022-07-30T00:22:33.503Z,99.90
2022-07-30T00:25:00.762Z,99.90
2022-07-30T00:27:28.017Z,99.90
2022-07-30T00:29:55.191Z,99.90
2022-07-30T00:32:22.355Z,99.90
2022-07-30T00:34:49.571Z,99.90
2022-07-30T00:37:16.776Z,99.90
2022-07-30T00:39:44.017Z,99.90
2022-07-30T00:42:11.204Z,99.90
2022-07-30T00:44:41.144Z,99.90
2022-07-30T00:47:08.684Z,99.90
2022-07-30T00:49:35.868Z,99.90
2022-07-30T00:52:03.244Z,99.90
2022-07-30T00:54:31.771Z,99.90
2022-07-30T00:56:59.271Z,99.90
2022-07-30T00:59:26.640Z,99.90
2022-07-30T01:01:54.944Z,99.90
2022-07-30T01:04:22.317Z,99.90
2022-07-30T01:06:49.594Z,99.90
2022-07-30T01:09:16.979Z,99.90
2022-07-30T01:11:44.616Z,99.90
2022-07-30T01:14:12.672Z,99.90
2022-07-30T01:16:43.244Z,99.90
2022-07-30T01:19:21.668Z,99.90
2022-07-30T01:22:07.309Z,99.90
2022-07-30T01:24:55.946Z,99.90
2022-07-30T01:27:26.462Z,99.90
2022-07-30T01:29:56.774Z,99.90
2022-07-30T01:32:27.284Z,99.90
2022-07-30T01:34:59.000Z,99.90
2022-07-30T01:37:28.087Z,99.90
2022-07-30T01:39:56.863Z,99.90
2022-07-30T01:42:28.837Z,99.90
2022-07-30T01:44:59.294Z,99.90
2022-07-30T01:47:30.654Z,99.90
2022-07-30T01:50:00.149Z,99.90
2022-07-30T01:52:32.451Z,99.90
2022-07-30T01:55:02.598Z,99.90
2022-07-30T01:57:35.901Z,99.90
2022-07-30T02:00:08.086Z,99.90
2022-07-30T02:02:36.990Z,99.90
2022-07-30T02:05:06.267Z,99.90
2022-07-30T02:07:40.128Z,99.90
2022-07-30T02:10:44.084Z,99.90
2022-07-30T02:13:17.703Z,99.90
2022-07-30T02:16:06.193Z,99.90
2022-07-30T02:18:44.563Z,99.90
2022-07-30T02:21:14.254Z,99.90
2022-07-30T02:23:45.331Z,99.90
2022-07-30T02:26:22.832Z,99.90
2022-07-30T02:28:56.710Z,99.90
2022-07-30T02:31:27.892Z,99.90
2022-07-30T02:34:02.959Z,99.90
2022-07-30T02:36:33.409Z,99.90
2022-07-30T02:39:06.634Z,99.90
2022-07-30T02:41:38.472Z,99.90
2022-07-30T02:44:07.453Z,99.90
2022-07-30T02:46:37.723Z,99.90
2022-07-30T02:49:09.403Z,99.90
2022-07-30T02:51:37.992Z,99.90
2022-07-30T02:54:08.476Z,99.90
2022-07-30T02:56:41.254Z,99.90
2022-07-30T02:59:10.647Z,99.90
2022-07-30T03:01:38.698Z,99.90
2022-07-30T03:04:07.994Z,99.90
2022-07-30T03:06:36.673Z,99.90
2022-07-30T03:09:05.894Z,99.90
2022-07-30T03:11:35.015Z,99.90
2022-07-30T03:14:03.265Z,99.90
2022-07-30T03:16:36.863Z,99.90
2022-07-30T03:19:08.701Z,99.90
2022-07-30T03:21:38.667Z,99.90
2022-07-30T03:24:09.048Z,99.90
2022-07-30T03:26:38.210Z,99.90
2022-07-30T03:29:08.742Z,99.90
2022-07-30T03:31:39.747Z,99.90
2022-07-30T03:34:09.482Z,99.90
2022-07-30T03:36:40.592Z,99.90
2022-07-30T03:39:08.466Z,99.90
2022-07-30T03:41:38.527Z,99.90
2022-07-30T03:44:07.849Z,99.90
2022-07-30T03:46:37.994Z,99.90
2022-07-30T03:49:06.222Z,99.90
2022-07-30T03:51:36.922Z,99.90
2022-07-30T03:54:04.862Z,99.90
2022-07-30T03:56:33.803Z,99.90
2022-07-30T03:59:01.971Z,99.90
2022-07-30T04:01:29.322Z,99.90
2022-07-30T04:04:04.522Z,99.90
2022-07-30T04:06:31.881Z,99.90
2022-07-30T04:08:59.048Z,99.90
2022-07-30T04:11:41.722Z,99.90
2022-07-30T04:14:09.754Z,99.90
2022-07-30T04:17:02.888Z,99.90
2022-07-30T04:19:43.696Z,99.90
2022-07-30T04:22:15.448Z,99.90
2022-07-30T04:24:45.203Z,99.90
2022-07-30T04:27:12.862Z,99.90
2022-07-30T04:29:41.426Z,99.90
2022-07-30T04:32:09.617Z,99.90
2022-07-30T04:34:37.325Z,99.90
2022-07-30T04:37:04.822Z,99.90
2022-07-30T04:39:32.123Z,99.90
2022-07-30T04:41:59.645Z,99.90
2022-07-30T04:44:26.813Z,99.90
2022-07-30T04:46:54.356Z,99.90
2022-07-30T04:49:23.378Z,99.90
2022-07-30T04:51:52.587Z,99.90
2022-07-30T04:54:24.367Z,99.90
2022-07-30T04:56:54.793Z,99.90
2022-07-30T04:59:27.443Z,99.90
2022-07-30T05:01:59.550Z,99.90
2022-07-30T05:04:29.096Z,99.90
2022-07-30T05:06:58.071Z,99.90
2022-07-30T05:09:26.573Z,99.90
2022-07-30T05:11:55.844Z,99.90
2022-07-30T05:14:24.864Z,99.90
2022-07-30T05:16:53.202Z,99.90
2022-07-30T05:19:21.465Z,99.90
2022-07-30T05:21:48.656Z,99.90
2022-07-30T05:24:15.974Z,99.90
2022-07-30T05:26:43.739Z,99.90
2022-07-30T05:29:19.419Z,99.90
2022-07-30T05:31:47.475Z,99.90
2022-07-30T05:34:15.185Z,99.90
2022-07-30T05:36:42.415Z,99.90
2022-07-30T05:39:09.653Z,99.90
2022-07-30T05:41:37.014Z,99.90
2022-07-30T05:44:07.871Z,99.90
2022-07-30T05:46:35.641Z,99.90
2022-07-30T05:49:03.262Z,99.90
2022-07-30T05:51:30.416Z,99.90
2022-07-30T05:53:57.727Z,99.90
2022-07-30T05:56:25.001Z,99.90
2022-07-30T05:58:52.283Z,99.90
2022-07-30T06:01:19.557Z,99.90
2022-07-30T06:03:46.807Z,99.90
2022-07-30T06:06:14.081Z,99.90
2022-07-30T06:08:41.372Z,99.90
2022-07-30T06:11:08.819Z,99.90
2022-07-30T06:13:36.996Z,99.90
2022-07-30T06:16:05.152Z,99.90
2022-07-30T06:18:32.573Z,99.90
2022-07-30T06:20:59.846Z,99.90
2022-07-30T06:23:27.415Z,99.90
2022-07-30T06:25:54.648Z,99.90
2022-07-30T06:28:37.009Z,99.90
2022-07-30T06:31:05.510Z,99.90
2022-07-30T06:33:33.290Z,99.90
2022-07-30T06:36:00.526Z,99.90
2022-07-30T06:38:29.098Z,99.90
2022-07-30T06:41:02.372Z,99.90
2022-07-30T06:43:30.396Z,99.90
2022-07-30T06:45:57.593Z,99.90
2022-07-30T06:48:24.843Z,99.90
2022-07-30T06:50:52.131Z,99.90
2022-07-30T06:53:19.290Z,99.90
2022-07-30T06:55:46.460Z,99.90
2022-07-30T06:58:13.610Z,99.90
2022-07-30T07:00:40.819Z,99.90
2022-07-30T07:03:11.681Z,99.90
2022-07-30T07:05:39.591Z,99.90
2022-07-30T07:08:06.850Z,99.90
2022-07-30T07:10:34.346Z,99.90
2022-07-30T07:13:01.536Z,99.90
2022-07-30T07:15:36.292Z,99.90
2022-07-30T07:18:05.837Z,99.90
2022-07-30T07:20:34.820Z,99.90
2022-07-30T07:23:08.717Z,99.90
2022-07-30T07:25:37.005Z,99.90
2022-07-30T07:28:12.522Z,99.90
2022-07-30T07:30:42.146Z,99.90
2022-07-30T07:33:10.036Z,99.90
2022-07-30T07:35:45.579Z,99.90
2022-07-30T07:38:18.570Z,99.90
2022-07-30T07:40:47.342Z,99.90
2022-07-30T07:43:15.544Z,99.90
2022-07-30T07:45:43.697Z,99.90
2022-07-30T07:48:11.606Z,99.90
2022-07-30T07:50:39.070Z,99.90
2022-07-30T07:53:15.949Z,99.90
2022-07-30T07:55:43.177Z,99.90
2022-07-30T07:58:11.365Z,99.90
2022-07-30T08:00:38.631Z,99.90
2022-07-30T08:03:06.079Z,99.90
2022-07-30T08:05:56.899Z,99.90
2022-07-30T08:08:20.707Z,99.90
2022-07-30T08:10:48.310Z,99.90
2022-07-30T08:13:49.017Z,99.90
2022-07-30T08:16:03.345Z,99.90
2022-07-30T08:18:30.579Z,99.90
2022-07-30T08:20:57.784Z,99.90
2022-07-30T08:23:42.518Z,99.90
2022-07-30T08:26:10.569Z,99.90
2022-07-30T08:28:37.814Z,99.90
2022-07-30T08:31:05.134Z,99.90
2022-07-30T08:33:32.326Z,99.90
2022-07-30T08:36:04.260Z,99.90
2022-07-30T08:38:39.500Z,99.90
2022-07-30T08:41:07.135Z,99.90
2022-07-30T08:43:37.088Z,99.90
2022-07-30T08:46:09.770Z,99.90
2022-07-30T08:48:38.007Z,99.90
2022-07-30T08:51:05.973Z,99.90
2022-07-30T08:53:35.114Z,99.90
2022-07-30T08:56:03.811Z,99.90
2022-07-30T08:58:34.300Z,99.90
2022-07-30T09:01:02.575Z,99.90
2022-07-30T09:03:30.457Z,99.90
2022-07-30T09:05:57.755Z,99.90
2022-07-30T09:08:25.213Z,99.90
2022-07-30T09:10:53.177Z,99.90
2022-07-30T09:13:33.546Z,99.90
2022-07-30T09:16:01.626Z,99.90
2022-07-30T09:18:40.855Z,99.90
2022-07-30T09:21:23.097Z,99.90
2022-07-30T09:23:59.472Z,99.90
2022-07-30T09:26:28.106Z,99.90
2022-07-30T09:29:14.542Z,99.90
2022-07-30T09:32:06.526Z,99.90
2022-07-30T09:34:36.224Z,99.90
2022-07-30T09:37:18.426Z,99.90
2022-07-30T09:39:59.101Z,99.90
2022-07-30T09:42:29.390Z,99.90
2022-07-30T09:45:14.084Z,99.90
2022-07-30T09:47:45.977Z,99.90
2022-07-30T09:50:29.688Z,99.90
2022-07-30T09:53:09.670Z,99.90
2022-07-30T09:55:41.828Z,99.90
2022-07-30T10:01:00.334Z,99.90
2022-07-30T10:03:34.289Z,99.90
2022-07-30T10:06:03.078Z,99.90
2022-07-30T10:08:48.020Z,99.90
2022-07-30T10:11:22.749Z,99.90
2022-07-30T10:13:58.788Z,99.90
2022-07-30T10:16:30.551Z,99.90
2022-07-30T10:18:59.177Z,99.90
2022-07-30T10:21:28.603Z,99.90
2022-07-30T10:24:00.689Z,99.90
2022-07-30T10:26:33.245Z,99.90
2022-07-30T10:29:03.187Z,99.90
2022-07-30T10:31:48.364Z,99.90
2022-07-30T10:34:23.631Z,99.90
2022-07-30T10:37:01.797Z,99.90
2022-07-30T10:39:47.124Z,99.90
2022-07-30T10:42:46.214Z,99.90
2022-07-30T10:45:24.725Z,99.90
2022-07-30T10:47:55.266Z,99.90
2022-07-30T10:50:24.829Z,99.90
2022-07-30T10:52:57.950Z,99.90
2022-07-30T10:55:38.628Z,99.90
2022-07-30T10:58:14.373Z,99.90
2022-07-30T11:00:52.247Z,99.90
2022-07-30T11:03:23.567Z,99.90
2022-07-30T11:06:24.327Z,99.90
2022-07-30T11:08:52.387Z,99.90
2022-07-30T11:11:59.274Z,99.90
2022-07-30T11:14:11.959Z,99.90
2022-07-30T11:16:40.164Z,99.90
2022-07-30T11:19:56.746Z,99.90
2022-07-30T11:22:29.959Z,99.90
2022-07-30T11:24:58.355Z,99.90
2022-07-30T11:27:46.481Z,99.90
2022-07-30T11:33:15.198Z,99.90
2022-07-30T11:35:42.811Z,99.50
2022-07-30T11:38:22.491Z,98.70
2022-07-30T11:40:49.696Z,99.10
2022-07-30T11:43:35.167Z,99.10
2022-07-30T11:46:16.346Z,99.50
2022-07-30T11:49:00.520Z,97.90
2022-07-30T11:51:27.943Z,98.70
2022-07-30T11:54:08.104Z,98.30
2022-07-30T11:56:35.360Z,97.50
2022-07-30T11:59:07.231Z,98.10
2022-07-30T12:01:36.013Z,97.90
2022-07-30T12:04:07.676Z,97.10
2022-07-30T12:06:44.094Z,97.40
2022-07-30T12:09:11.554Z,97.40
2022-07-30T12:11:38.754Z,97.10
2022-07-30T12:14:06.097Z,97.30
2022-07-30T12:16:34.307Z,97.40
2022-07-30T12:19:10.844Z,97.10
2022-07-30T12:21:38.219Z,96.70
2022-07-30T12:26:35.128Z,93.60
2022-07-30T12:29:06.269Z,93.00
2022-07-30T12:31:34.145Z,93.40
2022-07-30T12:34:05.924Z,92.10
2022-07-30T12:36:35.685Z,92.30
2022-07-30T12:39:05.300Z,92.60
2022-07-30T12:42:02.024Z,92.30
2022-07-30T12:44:43.464Z,92.30
2022-07-30T12:47:31.347Z,93.30
2022-07-30T12:50:01.681Z,92.60
2022-07-30T12:55:04.032Z,90.10
2022-07-30T12:57:55.932Z,87.90
2022-07-30T13:00:31.528Z,88.10
2022-07-30T13:02:59.400Z,85.00
2022-07-30T13:05:46.370Z,84.50
2022-07-30T13:10:59.304Z,81.80
2022-07-30T13:13:28.161Z,81.50
2022-07-30T13:16:04.068Z,80.10
2022-07-30T13:18:33.856Z,80.40
2022-07-30T13:21:02.808Z,79.40
2022-07-30T13:23:30.086Z,76.20
2022-07-30T13:25:58.258Z,79.60
2022-07-30T13:28:26.220Z,78.10
2022-07-30T13:30:53.474Z,75.50
2022-07-30T13:33:20.643Z,77.30
2022-07-30T13:35:47.970Z,73.50
2022-07-30T13:38:15.330Z,74.90
2022-07-30T13:40:43.027Z,72.00
2022-07-30T13:43:10.610Z,69.90
2022-07-30T13:45:37.902Z,67.90
2022-07-30T13:48:05.384Z,66.70
2022-07-30T13:50:32.679Z,68.40
2022-07-30T13:53:02.498Z,65.60
2022-07-30T13:55:30.653Z,65.20
2022-07-30T13:57:58.251Z,66.40
2022-07-30T14:00:25.544Z,68.00
2022-07-30T14:02:52.747Z,69.10
2022-07-30T14:05:19.941Z,65.60
2022-07-30T14:07:47.056Z,63.90
2022-07-30T14:10:14.297Z,65.00
2022-07-30T14:12:41.482Z,65.60
2022-07-30T14:15:09.497Z,60.00
2022-07-30T14:17:36.719Z,65.30
2022-07-30T14:20:05.389Z,65.00
2022-07-30T14:22:32.637Z,65.00
2022-07-30T14:24:59.853Z,65.80
2022-07-30T14:27:27.049Z,64.30
2022-07-30T14:29:54.222Z,63.90
2022-07-30T14:32:21.425Z,63.20
2022-07-30T14:34:50.982Z,62.60
2022-07-30T14:37:18.238Z,61.50
2022-07-30T14:39:45.448Z,60.80
2022-07-30T14:42:12.733Z,59.30
2022-07-30T14:47:08.177Z,59.30
2022-07-30T14:49:35.848Z,59.70
2022-07-30T14:52:03.169Z,59.30
2022-07-30T14:54:31.194Z,58.50
2022-07-30T14:57:12.238Z,57.70
2022-07-30T14:59:40.179Z,57.40
2022-07-30T15:02:10.671Z,59.30
2022-07-30T15:04:38.361Z,59.20
2022-07-30T15:07:06.919Z,58.80
2022-07-30T15:09:34.241Z,59.00
2022-07-30T15:12:09.930Z,59.80
2022-07-30T15:14:41.044Z,59.30
2022-07-30T15:17:08.698Z,60.80
2022-07-30T15:19:35.907Z,63.00
2022-07-30T15:22:03.602Z,64.30
2022-07-30T15:24:31.982Z,64.50
2022-07-30T15:26:59.849Z,64.90
2022-07-30T15:29:27.129Z,64.90
2022-07-30T15:31:54.519Z,65.40
2022-07-30T15:34:21.786Z,65.10
2022-07-30T15:36:48.983Z,65.70
2022-07-30T15:39:16.378Z,65.60
2022-07-30T15:41:43.783Z,62.90
2022-07-30T15:44:11.384Z,61.50
2022-07-30T15:46:38.695Z,59.20
2022-07-30T15:49:05.948Z,60.30
2022-07-30T15:51:33.507Z,59.90
2022-07-30T15:54:00.748Z,59.50
2022-07-30T15:56:28.077Z,59.50
2022-07-30T15:58:55.690Z,61.20
2022-07-30T16:01:23.034Z,61.20
2022-07-30T16:03:50.308Z,62.30
2022-07-30T16:06:17.501Z,62.50
2022-07-30T16:08:44.705Z,62.80
2022-07-30T16:11:11.918Z,63.60
2022-07-30T16:13:39.074Z,63.40
2022-07-30T16:16:06.510Z,63.80
2022-07-30T16:18:33.726Z,62.80
2022-07-30T16:21:01.255Z,62.90
2022-07-30T16:23:36.554Z,62.80
2022-07-30T16:26:05.317Z,61.30
2022-07-30T16:28:32.731Z,61.90
2022-07-30T16:30:59.964Z,60.90
2022-07-30T16:33:27.148Z,64.00
2022-07-30T16:35:54.333Z,62.80
2022-07-30T16:38:22.317Z,62.20
2022-07-30T16:40:49.923Z,63.90
2022-07-30T16:43:19.914Z,64.80
2022-07-30T16:45:48.453Z,62.20
2022-07-30T16:48:15.856Z,64.70
2022-07-30T16:50:43.933Z,66.10
2022-07-30T16:53:14.229Z,65.80
2022-07-30T16:55:43.484Z,67.00
2022-07-30T16:58:11.532Z,66.70
2022-07-30T17:00:39.750Z,69.30
2022-07-30T17:03:07.466Z,67.80
2022-07-30T17:05:34.997Z,68.10
2022-07-30T17:08:02.239Z,67.60
2022-07-30T17:10:29.704Z,71.00
2022-07-30T17:12:57.650Z,68.50
2022-07-30T17:15:32.080Z,67.50
2022-07-30T17:18:01.837Z,68.20
2022-07-30T17:20:31.479Z,68.90
2022-07-30T17:22:58.750Z,70.40
2022-07-30T17:25:26.855Z,69.70
2022-07-30T17:27:56.104Z,68.50
2022-07-30T17:30:24.460Z,69.30
2022-07-30T17:32:52.769Z,70.00
2022-07-30T17:35:20.444Z,68.60
2022-07-30T17:37:47.934Z,68.70
2022-07-30T17:40:29.079Z,69.50
2022-07-30T17:43:00.012Z,70.70
2022-07-30T17:45:27.193Z,72.00
2022-07-30T17:47:54.412Z,72.00
2022-07-30T17:50:21.762Z,73.40
2022-07-30T17:52:49.012Z,75.20
2022-07-30T17:55:16.169Z,76.10
2022-07-30T17:57:43.388Z,77.30
2022-07-30T18:00:11.357Z,77.40
2022-07-30T18:02:38.487Z,82.20
2022-07-30T18:05:06.203Z,84.20
2022-07-30T18:07:33.424Z,82.20
2022-07-30T18:10:00.707Z,84.00
2022-07-30T18:12:28.024Z,85.20
2022-07-30T18:14:55.564Z,85.80
2022-07-30T18:19:50.537Z,90.60
2022-07-30T18:22:22.264Z,91.10
2022-07-30T18:24:57.844Z,92.40
2022-07-30T18:27:25.521Z,91.30
2022-07-30T18:29:52.704Z,92.30
2022-07-30T18:32:19.958Z,91.70
2022-07-30T18:34:47.179Z,92.30
2022-07-30T18:37:14.491Z,93.00
2022-07-30T18:39:41.748Z,93.20
2022-07-30T18:42:29.212Z,94.00
2022-07-30T18:44:56.509Z,94.20
2022-07-30T18:47:23.758Z,93.40
2022-07-30T18:49:51.349Z,94.80
2022-07-30T18:52:18.592Z,93.50
2022-07-30T18:54:45.861Z,94.20
2022-07-30T18:57:14.589Z,94.70
2022-07-30T18:59:42.165Z,93.40
2022-07-30T19:02:09.525Z,94.30
2022-07-30T19:04:36.976Z,93.70
2022-07-30T19:07:04.227Z,94.30
2022-07-30T19:09:31.626Z,95.10
2022-07-30T19:11:59.034Z,95.10
2022-07-30T19:14:26.229Z,96.00
2022-07-30T19:16:53.385Z,95.90
2022-07-30T19:19:26.955Z,95.70
2022-07-30T19:21:54.532Z,95.40
2022-07-30T19:24:21.846Z,95.60
2022-07-30T19:26:50.088Z,95.80
2022-07-30T19:29:17.362Z,96.00
2022-07-30T19:31:44.689Z,96.40
2022-07-30T19:34:11.889Z,96.50
2022-07-30T19:36:39.353Z,97.70
2022-07-30T19:41:54.402Z,98.10
2022-07-30T19:44:21.627Z,98.00
2022-07-30T19:46:48.946Z,98.40
2022-07-30T19:49:19.828Z,98.60
2022-07-30T19:52:09.925Z,98.00
2022-07-30T19:54:36.883Z,98.00
2022-07-30T19:57:04.709Z,99.10
2022-07-30T19:59:45.587Z,99.40
2022-07-30T20:02:19.375Z,99.50
2022-07-30T20:04:51.121Z,99.90
2022-07-30T20:07:18.557Z,99.90
2022-07-30T20:09:48.449Z,99.10
2022-07-30T20:12:16.141Z,98.80
2022-07-30T20:14:44.517Z,98.70
2022-07-30T20:17:11.872Z,99.00
2022-07-30T20:19:39.109Z,99.30
2022-07-30T20:22:16.513Z,99.30
2022-07-30T20:24:45.362Z,99.90
2022-07-30T20:27:37.183Z,99.90
2022-07-30T20:29:59.886Z,99.90
2022-07-30T20:32:28.176Z,99.90
2022-07-30T20:34:56.497Z,99.90
2022-07-30T20:37:23.653Z,99.90
2022-07-30T20:39:55.588Z,99.90
2022-07-30T20:42:24.227Z,99.90
2022-07-30T20:44:52.395Z,99.90
2022-07-30T20:47:34.329Z,99.90
2022-07-30T20:50:03.257Z,99.90
2022-07-30T20:52:30.481Z,99.90
2022-07-30T20:54:57.780Z,99.90
2022-07-30T20:57:56.783Z,99.90
2022-07-30T21:00:12.765Z,99.90
2022-07-30T21:02:39.983Z,99.90
2022-07-30T21:05:07.865Z,99.90
2022-07-30T21:07:36.703Z,99.90
2022-07-30T21:10:05.093Z,99.90
2022-07-30T21:12:34.560Z,99.90
2022-07-30T21:15:01.772Z,99.90
2022-07-30T21:17:28.967Z,99.90
2022-07-30T21:19:57.462Z,99.90
2022-07-30T21:22:24.661Z,99.90
2022-07-30T21:24:51.900Z,99.90
2022-07-30T21:27:19.211Z,99.90
2022-07-30T21:29:46.908Z,99.90
2022-07-30T21:32:15.111Z,99.90
2022-07-30T21:34:46.335Z,99.90
2022-07-30T21:37:15.691Z,99.90
2022-07-30T21:39:43.218Z,99.90
2022-07-30T21:42:11.375Z,99.90
2022-07-30T21:44:58.884Z,99.90
2022-07-30T21:47:26.179Z,99.90
2022-07-30T21:49:53.365Z,99.90
2022-07-30T21:52:20.556Z,99.90
2022-07-30T21:54:48.655Z,99.90
2022-07-30T21:59:55.253Z,99.90
2022-07-30T22:02:25.984Z,99.90
2022-07-30T22:04:55.431Z,99.90
2022-07-30T22:07:22.734Z,99.90
2022-07-30T22:09:49.931Z,99.90
2022-07-30T22:12:18.111Z,99.90
2022-07-30T22:14:49.318Z,99.90
2022-07-30T22:17:23.670Z,99.90
2022-07-30T22:20:08.780Z,99.90
2022-07-30T22:22:39.131Z,99.90
2022-07-30T22:25:09.794Z,99.90
2022-07-30T22:27:56.675Z,99.90
2022-07-30T22:30:26.989Z,99.90
2022-07-30T22:32:55.534Z,99.90
2022-07-30T22:35:32.487Z,99.90
2022-07-30T22:38:02.924Z,99.90
2022-07-30T22:40:31.077Z,99.90
2022-07-30T22:42:58.539Z,99.90
2022-07-30T22:45:48.150Z,99.90
2022-07-30T22:48:13.143Z,99.90
2022-07-30T22:50:40.615Z,99.90
2022-07-30T22:54:09.923Z,99.90
2022-07-30T22:55:55.634Z,99.90
2022-07-30T22:58:26.227Z,99.90
2022-07-30T23:01:06.725Z,99.90
2022-07-30T23:03:34.264Z,99.90
2022-07-30T23:06:01.509Z,99.90
2022-07-30T23:08:30.967Z,99.90
2022-07-30T23:10:59.048Z,99.90
2022-07-30T23:12:16.841Z,97.90
2022-07-30T23:13:27.782Z,99.90
2022-07-30T23:15:54.973Z,99.90
2022-07-30T23:18:22.180Z,99.90
2022-07-30T23:20:49.384Z,99.90
2022-07-30T23:23:16.616Z,99.90
2022-07-30T23:25:46.272Z,99.90
2022-07-30T23:28:13.626Z,99.90
2022-07-30T23:30:40.942Z,99.90
2022-07-30T23:33:08.140Z,99.90
2022-07-30T23:35:35.340Z,99.90
2022-07-30T23:38:02.619Z,99.90
2022-07-30T23:40:29.948Z,99.90
2022-07-30T23:42:57.172Z,99.90
2022-07-30T23:45:24.397Z,99.90
2022-07-30T23:48:01.843Z,99.90
2022-07-30T23:50:32.790Z,99.90
2022-07-30T23:53:03.341Z,99.90
2022-07-30T23:55:32.167Z,99.90
2022-07-30T23:57:59.536Z,99.90
